Time;durP1;ratioP1;P1;durP2;ratioP2;P2;SDS_P1;SDS_P2;PMS_P1;PMS_P2;Temp;Humidity;BMP_temperature;BMP_pressure;BME280_temperature;BME280_humidity;BME280_pressure;Samples;Min_cycle;Max_cycle;Signal;HPM_P1;HPM_P2
2022/05/02 00:06:09;;;;;;;8.50;2.50;;;19.50;44.00;;;;;;20998838;28;20052;-65
2022/05/02 00:16:11;;;;;;;6.78;2.20;;;19.40;44.40;;;;;;20997635;28;20063;-63
2022/05/02 00:26:13;;;;;;;4.90;2.08;;;19.20;45.30;;;;;;20997368;28;20045;-64
2022/05/02 00:36:15;;;;;;;11.45;3.00;;;19.20;45.60;;;;;;20996822;28;20095;-69
2022/05/02 00:46:22;;;;;;;6.43;2.75;;;19.20;46.10;;;;;;20995629;28;20072;-70
2022/05/02 00:56:24;;;;;;;5.93;2.60;;;19.00;46.30;;;;;;20995443;28;20400;-72
2022/05/02 01:16:46;;;;;;;7.25;3.53;;;18.70;45.80;;;;;;21010973;28;20053;-68
2022/05/02 01:26:49;;;;;;;9.10;4.13;;;18.60;45.70;;;;;;21011477;28;20083;-68
2022/05/02 01:36:53;;;;;;;5.88;3.72;;;18.40;46.00;;;;;;21009350;28;20055;-63
2022/05/02 01:46:58;;;;;;;8.52;3.85;;;18.20;46.60;;;;;;21008745;28;20049;-67
2022/05/02 01:57:02;;;;;;;7.78;3.53;;;18.10;50.50;;;;;;21008359;28;20048;-66
2022/05/02 02:07:10;;;;;;;9.23;3.55;;;17.90;51.90;;;;;;21007954;28;20505;-67
2022/05/02 02:17:15;;;;;;;16.33;3.72;;;17.80;52.60;;;;;;20991800;28;20049;-71
2022/05/02 02:27:19;;;;;;;10.07;3.35;;;17.80;57.00;;;;;;21006968;28;20175;-63
2022/05/02 02:37:24;;;;;;;10.35;3.78;;;17.40;60.10;;;;;;21005669;28;20484;-65
2022/05/02 02:47:27;;;;;;;8.13;3.03;;;17.20;61.80;;;;;;20987684;28;20140;-66
2022/05/02 02:57:31;;;;;;;8.87;3.33;;;17.10;61.30;;;;;;21003964;28;20052;-63
2022/05/02 03:07:33;;;;;;;13.88;3.50;;;17.20;57.70;;;;;;21003115;28;20474;-70
2022/05/02 03:17:36;;;;;;;9.87;3.30;;;17.20;56.10;;;;;;21002714;28;20469;-64
2022/05/02 03:27:40;;;;;;;7.47;3.75;;;17.20;57.30;;;;;;21001982;28;20044;-69
2022/05/02 03:37:42;;;;;;;14.35;3.63;;;17.10;58.50;;;;;;20999791;28;20056;-63
2022/05/02 03:47:44;;;;;;;10.63;3.70;;;17.00;59.90;;;;;;20999742;28;20044;-62
2022/05/02 03:57:45;;;;;;;12.60;2.97;;;16.90;61.00;;;;;;20999044;28;20052;-71
2022/05/02 04:07:46;;;;;;;10.80;3.95;;;16.80;61.60;;;;;;20997695;28;20056;-69
2022/05/02 04:17:47;;;;;;;10.05;3.60;;;16.70;62.00;;;;;;20997856;28;20056;-62
2022/05/02 04:27:50;;;;;;;14.40;3.72;;;16.60;62.50;;;;;;20996594;28;20050;-70
2022/05/02 04:37:53;;;;;;;9.93;3.50;;;16.40;62.70;;;;;;20996144;28;20528;-71
2022/05/02 04:48:09;;;;;;;11.25;3.55;;;16.40;62.60;;;;;;20994976;28;20383;-63
2022/05/02 04:58:10;;;;;;;14.37;4.43;;;16.30;63.00;;;;;;20996251;28;20044;-63
2022/05/02 05:08:51;;;;;;;14.73;4.30;;;16.30;63.10;;;;;;20994530;28;20053;-63
2022/05/02 05:19:19;;;;;;;12.88;4.35;;;16.30;62.50;;;;;;20994160;28;20488;-64
2022/05/02 05:29:47;;;;;;;7.60;2.88;;;16.20;62.40;;;;;;20975276;28;20052;-63
2022/05/02 05:40:03;;;;;;;13.32;4.30;;;16.20;62.50;;;;;;20994030;28;20055;-63
2022/05/02 05:50:24;;;;;;;12.85;4.88;;;16.10;62.70;;;;;;20994085;28;20048;-62
2022/05/02 06:00:30;;;;;;;12.38;4.22;;;15.90;62.50;;;;;;21005620;28;20416;-72
2022/05/02 06:10:33;;;;;;;14.88;4.97;;;15.90;61.50;;;;;;21007597;28;20048;-63
2022/05/02 06:20:39;;;;;;;7.20;4.40;;;15.90;62.20;;;;;;21007125;28;20045;-64
2022/05/02 06:30:43;;;;;;;11.38;5.32;;;16.10;61.50;;;;;;21006156;28;20473;-63
2022/05/02 06:41:00;;;;;;;10.20;6.63;;;16.10;60.40;;;;;;20986760;28;20048;-64
2022/05/02 06:51:10;;;;;;;9.65;5.70;;;16.50;57.90;;;;;;21005642;28;20071;-63
2022/05/02 07:01:29;;;;;;;14.43;6.85;;;16.70;57.40;;;;;;21005268;28;20404;-65
2022/05/02 07:11:52;;;;;;;13.60;5.93;;;17.00;56.20;;;;;;21002407;28;20094;-63
2022/05/02 07:22:01;;;;;;;10.88;5.95;;;17.40;55.30;;;;;;21000570;28;20083;-65
2022/05/02 07:32:06;;;;;;;13.15;6.93;;;17.60;54.70;;;;;;21001512;28;20473;-64
2022/05/02 07:42:10;;;;;;;17.42;6.03;;;18.20;53.40;;;;;;20998744;28;20056;-66
2022/05/02 07:52:22;;;;;;;12.85;7.00;;;18.30;53.10;;;;;;20998482;28;20052;-63
2022/05/02 08:02:24;;;;;;;8.85;5.78;;;18.30;53.00;;;;;;20919150;28;20162;-66
2022/05/02 08:12:39;;;;;;;12.13;6.28;;;18.40;52.70;;;;;;20913736;28;20069;-66
2022/05/02 08:33:15;;;;;;;8.75;6.22;;;18.30;53.20;;;;;;20979427;28;20140;-77
2022/05/02 08:43:37;;;;;;;12.73;5.50;;;18.70;52.10;;;;;;20994006;28;20044;-62
2022/05/02 08:53:39;;;;;;;11.95;6.35;;;19.20;49.70;;;;;;20979017;28;20139;-69
2022/05/02 09:03:59;;;;;;;9.80;5.65;;;19.40;48.40;;;;;;20994167;28;20135;-66
2022/05/02 09:14:27;;;;;;;9.52;5.60;;;19.10;49.10;;;;;;20993147;28;20071;-64
2022/05/02 09:24:40;;;;;;;10.35;5.10;;;19.50;48.60;;;;;;20982978;28;20036;-63
2022/05/02 09:34:47;;;;;;;9.48;5.32;;;19.60;48.40;;;;;;20990647;28;20456;-63
2022/05/02 10:06:16;;;;;;;13.98;6.07;;;19.80;49.10;;;;;;21008080;28;20048;-59
2022/05/02 10:16:57;;;;;;;8.60;3.92;;;19.90;50.10;;;;;;21007391;28;20143;-60
2022/05/02 10:27:31;;;;;;;8.98;4.63;;;19.80;50.00;;;;;;20669627;28;20059;-65
2022/05/02 10:37:38;;;;;;;11.25;6.07;;;19.70;49.30;;;;;;20668322;28;20534;-66
2022/05/02 10:47:52;;;;;;;10.77;5.28;;;19.50;49.60;;;;;;20651083;28;20049;-65
2022/05/02 10:57:57;;;;;;;10.57;5.43;;;19.50;49.80;;;;;;20778936;28;20048;-72
2022/05/02 11:08:04;;;;;;;11.75;5.80;;;19.60;49.60;;;;;;20986417;28;20100;-71
2022/05/02 11:29:20;;;;;;;9.15;5.50;;;19.90;48.60;;;;;;20661201;28;20483;-65
2022/05/02 11:39:37;;;;;;;13.95;6.70;;;20.10;47.50;;;;;;20421552;29;20130;-66
2022/05/02 11:50:05;;;;;;;13.05;5.93;;;20.10;47.90;;;;;;20422133;29;20052;-62
2022/05/02 12:00:12;;;;;;;12.60;6.00;;;20.30;47.20;;;;;;20494555;28;20434;-63
2022/05/02 12:10:14;;;;;;;12.38;7.65;;;20.30;47.20;;;;;;20726515;28;20044;-61
2022/05/02 12:20:33;;;;;;;11.00;7.77;;;20.30;47.40;;;;;;20914052;28;20057;-61
2022/05/02 12:30:34;;;;;;;9.30;4.72;;;20.00;49.00;;;;;;20913342;28;20048;-65
2022/05/02 12:40:38;;;;;;;8.82;3.92;;;19.80;52.10;;;;;;20912833;28;20053;-62
2022/05/02 12:50:46;;;;;;;13.23;4.35;;;19.20;53.40;;;;;;20911804;28;20060;-64
2022/05/02 13:00:49;;;;;;;6.93;3.53;;;19.10;51.30;;;;;;20894211;28;20052;-59
2022/05/02 13:10:52;;;;;;;19.83;4.03;;;18.80;51.10;;;;;;20926543;28;20049;-60
2022/05/02 13:21:00;;;;;;;36.37;9.43;;;18.60;54.80;;;;;;20928885;28;20472;-63
2022/05/02 13:31:27;;;;;;;12.73;4.43;;;18.10;63.60;;;;;;20927474;28;20140;-62
2022/05/02 13:41:59;;;;;;;8.55;4.97;;;17.50;65.10;;;;;;20925543;28;20053;-64
2022/05/02 13:52:10;;;;;;;5.40;3.20;;;17.20;65.40;;;;;;20925990;28;20458;-62
2022/05/02 14:02:17;;;;;;;5.50;2.80;;;17.10;64.80;;;;;;20925839;28;20045;-59
2022/05/02 14:12:23;;;;;;;6.07;3.03;;;17.10;61.80;;;;;;20924284;28;20549;-62
2022/05/02 14:22:37;;;;;;;6.88;2.58;;;17.00;61.40;;;;;;20923140;28;20045;-62
2022/05/02 14:32:46;;;;;;;4.25;1.45;;;16.80;65.10;;;;;;20922137;28;20057;-63
2022/05/02 14:42:50;;;;;;;2.22;1.35;;;16.40;63.90;;;;;;20903747;28;20048;-65
2022/05/02 14:52:54;;;;;;;2.70;1.60;;;16.20;64.80;;;;;;20921175;28;20389;-65
2022/05/02 15:02:59;;;;;;;15.60;7.82;;;16.00;62.90;;;;;;20920444;28;20545;-67
2022/05/02 15:13:33;;;;;;;1.88;1.02;;;16.00;63.60;;;;;;20902111;28;20421;-64
2022/05/02 15:23:37;;;;;;;4.40;1.52;;;16.10;62.90;;;;;;20919395;28;20413;-62
2022/05/02 15:44:11;;;;;;;2.75;1.10;;;16.20;61.90;;;;;;20917323;28;20080;-65
2022/05/02 15:54:18;;;;;;;1.65;1.17;;;16.40;60.20;;;;;;20914763;28;20088;-67
2022/05/02 16:04:28;;;;;;;2.00;1.20;;;16.50;58.90;;;;;;20916374;28;20409;-69
2022/05/02 16:14:30;;;;;;;2.50;1.40;;;16.70;56.00;;;;;;20914733;28;20052;-67
2022/05/02 16:24:51;;;;;;;4.32;0.93;;;16.70;58.10;;;;;;20914330;28;20045;-66
2022/05/02 16:34:53;;;;;;;1.85;0.90;;;17.00;55.70;;;;;;20913742;28;20446;-66
2022/05/02 16:44:56;;;;;;;2.20;0.97;;;16.90;57.20;;;;;;20913124;28;20044;-62
2022/05/02 16:54:57;;;;;;;4.32;1.30;;;17.00;56.00;;;;;;20912807;28;20382;-64
2022/05/02 17:05:03;;;;;;;1.90;1.00;;;16.90;56.00;;;;;;20912316;28;20070;-69
2022/05/02 17:15:05;;;;;;;3.00;1.00;;;16.90;56.70;;;;;;20910920;28;20061;-63
2022/05/02 17:25:08;;;;;;;3.83;1.27;;;17.00;55.50;;;;;;20910674;28;20041;-61
2022/05/02 17:35:12;;;;;;;1.33;0.90;;;17.10;54.80;;;;;;20910510;28;20053;-64
2022/05/02 17:45:17;;;;;;;2.90;1.30;;;17.20;53.90;;;;;;20892389;28;20444;-62
2022/05/02 17:55:18;;;;;;;2.80;1.30;;;17.20;53.90;;;;;;20920815;28;20115;-66
2022/05/02 18:05:29;;;;;;;4.75;1.52;;;17.20;53.40;;;;;;20924272;28;20049;-66
2022/05/02 18:15:31;;;;;;;4.82;2.13;;;17.20;53.00;;;;;;20923790;28;20421;-67
2022/05/02 18:25:38;;;;;;;4.07;2.22;;;17.20;54.10;;;;;;20923158;28;20114;-66
2022/05/02 18:35:51;;;;;;;1.83;1.00;;;17.10;52.50;;;;;;20921683;28;20049;-65
2022/05/02 18:56:21;;;;;;;3.60;1.70;;;16.90;53.00;;;;;;20920496;28;20478;-64
2022/05/02 19:06:25;;;;;;;3.03;2.00;;;16.80;53.90;;;;;;20901167;28;20297;-70
2022/05/02 19:16:34;;;;;;;3.70;2.03;;;16.80;54.50;;;;;;20918746;28;20056;-67
2022/05/02 19:26:36;;;;;;;5.57;3.88;;;16.70;54.70;;;;;;20918952;28;20638;-68
2022/05/02 19:47:16;;;;;;;1.95;1.30;;;16.30;61.20;;;;;;20916837;28;20045;-66
2022/05/02 19:57:21;;;;;;;26.17;23.42;;;16.20;61.10;;;;;;20898051;28;20400;-63
2022/05/02 20:07:22;;;;;;;3.42;1.35;;;16.00;60.50;;;;;;20914736;28;20053;-61
2022/05/02 20:17:23;;;;;;;4.18;1.85;;;15.90;61.20;;;;;;20914097;28;20044;-62
2022/05/02 20:27:30;;;;;;;3.13;1.90;;;15.70;61.40;;;;;;20914227;28;20049;-61
2022/05/02 20:37:32;;;;;;;2.45;1.40;;;;;;;;;;20913721;28;20057;-61
2022/05/02 20:47:40;;;;;;;2.78;1.48;;;;;;;;;;20913291;28;20049;-60
2022/05/02 20:57:42;;;;;;;4.20;2.25;;;;;;;;;;20912648;28;20048;-64
2022/05/02 21:07:45;;;;;;;3.47;1.58;;;;;;;;;;20912324;28;20068;-61
2022/05/02 21:17:48;;;;;;;3.72;2.40;;;;;;;;;;20911587;28;20048;-61
2022/05/02 21:28:09;;;;;;;4.80;2.65;;;;;;;;;;20918657;28;20045;-61
2022/05/02 21:38:12;;;;;;;6.40;2.60;;;;;;;;;;20928092;28;20049;-60
2022/05/02 21:48:14;;;;;;;4.85;2.72;;;;;;;;;;20926479;28;20051;-62
2022/05/02 21:58:16;;;;;;;3.33;2.15;;;;;;;;;;20926824;28;20056;-60
2022/05/02 22:08:18;;;;;;;4.68;3.20;;;;;;;;;;20925253;28;20558;-60
2022/05/02 22:18:20;;;;;;;4.07;2.50;;;;;;;;;;20924361;28;20051;-62
2022/05/02 22:28:21;;;;;;;4.30;2.58;;;;;;;;;;20924641;28;20045;-60
2022/05/02 22:38:23;;;;;;;4.57;2.50;;;;;;;;;;20922683;28;20052;-64
2022/05/02 22:48:25;;;;;;;4.32;2.75;;;;;;;;;;20921367;28;20045;-59
2022/05/02 22:58:33;;;;;;;4.00;2.42;;;;;;;;;;20921832;28;20055;-59
2022/05/02 23:09:01;;;;;;;4.25;2.83;;;;;;;;;;20920361;28;20057;-60
2022/05/02 23:19:06;;;;;;;6.30;4.07;;;;;;;;;;20917683;28;20052;-60
2022/05/02 23:29:07;;;;;;;;;;;;;;;;;;20917699;28;20140;-60
2022/05/02 23:39:09;;;;;;;8.60;6.20;;;;;;;;;;20917845;28;19932;-60
2022/05/02 23:49:11;;;;;;;9.82;6.22;;;;;;;;;;20916565;28;20053;-61
2022/05/02 23:59:33;;;;;;;8.45;6.22;;;;;;;;;;20916371;28;20064;-60
